sensor_id;sensor_type;location;lat;lon;timestamp;P1;durP1;ratioP1;P2;durP2;ratioP2
16967;SDS011;64862;54.398;10.126;2023-07-30T00:06:40;13.63;;;4.70;;
16967;SDS011;64862;54.398;10.126;2023-07-30T00:16:44;11.73;;;4.95;;
16967;SDS011;64862;54.398;10.126;2023-07-30T00:26:46;12.98;;;4.57;;
16967;SDS011;64862;54.398;10.126;2023-07-30T00:36:50;11.38;;;4.57;;
16967;SDS011;64862;54.398;10.126;2023-07-30T00:46:52;13.50;;;4.70;;
16967;SDS011;64862;54.398;10.126;2023-07-30T00:56:56;10.00;;;4.47;;
16967;SDS011;64862;54.398;10.126;2023-07-30T01:06:58;10.93;;;4.00;;
16967;SDS011;64862;54.398;10.126;2023-07-30T01:17:02;13.82;;;4.43;;
16967;SDS011;64862;54.398;10.126;2023-07-30T01:27:07;11.23;;;4.72;;
16967;SDS011;64862;54.398;10.126;2023-07-30T01:37:13;12.80;;;4.45;;
16967;SDS011;64862;54.398;10.126;2023-07-30T01:47:19;16.55;;;5.30;;
16967;SDS011;64862;54.398;10.126;2023-07-30T01:57:21;14.20;;;4.93;;
16967;SDS011;64862;54.398;10.126;2023-07-30T02:07:24;15.85;;;4.80;;
16967;SDS011;64862;54.398;10.126;2023-07-30T02:17:26;11.00;;;5.07;;
16967;SDS011;64862;54.398;10.126;2023-07-30T02:27:30;9.55;;;4.72;;
16967;SDS011;64862;54.398;10.126;2023-07-30T02:37:32;14.77;;;5.00;;
16967;SDS011;64862;54.398;10.126;2023-07-30T02:47:36;12.30;;;5.40;;
16967;SDS011;64862;54.398;10.126;2023-07-30T02:57:39;12.18;;;6.07;;
16967;SDS011;64862;54.398;10.126;2023-07-30T03:07:42;10.13;;;4.88;;
16967;SDS011;64862;54.398;10.126;2023-07-30T03:17:44;11.85;;;5.32;;
16967;SDS011;64862;54.398;10.126;2023-07-30T03:27:48;8.48;;;4.80;;
16967;SDS011;64862;54.398;10.126;2023-07-30T03:37:51;8.95;;;4.55;;
16967;SDS011;64862;54.398;10.126;2023-07-30T03:47:54;7.43;;;3.63;;
16967;SDS011;64862;54.398;10.126;2023-07-30T03:57:56;6.93;;;3.65;;
16967;SDS011;64862;54.398;10.126;2023-07-30T04:08:00;7.75;;;3.67;;
16967;SDS011;64862;54.398;10.126;2023-07-30T04:18:02;7.78;;;4.68;;
16967;SDS011;64862;54.398;10.126;2023-07-30T04:28:06;8.27;;;4.47;;
16967;SDS011;64862;54.398;10.126;2023-07-30T04:38:09;6.65;;;4.18;;
16967;SDS011;64862;54.398;10.126;2023-07-30T04:48:14;7.07;;;4.32;;
16967;SDS011;64862;54.398;10.126;2023-07-30T04:58:16;11.88;;;6.82;;
16967;SDS011;64862;54.398;10.126;2023-07-30T05:08:20;10.75;;;7.18;;
16967;SDS011;64862;54.398;10.126;2023-07-30T05:18:22;10.57;;;7.13;;
16967;SDS011;64862;54.398;10.126;2023-07-30T05:28:25;12.85;;;9.05;;
16967;SDS011;64862;54.398;10.126;2023-07-30T05:38:28;13.65;;;9.30;;
16967;SDS011;64862;54.398;10.126;2023-07-30T05:48:32;17.05;;;10.05;;
16967;SDS011;64862;54.398;10.126;2023-07-30T05:58:34;12.88;;;9.13;;
16967;SDS011;64862;54.398;10.126;2023-07-30T06:08:38;18.38;;;10.25;;
16967;SDS011;64862;54.398;10.126;2023-07-30T06:18:40;21.58;;;10.88;;
16967;SDS011;64862;54.398;10.126;2023-07-30T06:28:43;18.35;;;10.07;;
16967;SDS011;64862;54.398;10.126;2023-07-30T06:38:46;20.13;;;8.90;;
16967;SDS011;64862;54.398;10.126;2023-07-30T06:48:49;15.35;;;8.30;;
16967;SDS011;64862;54.398;10.126;2023-07-30T06:58:51;18.23;;;6.97;;
16967;SDS011;64862;54.398;10.126;2023-07-30T07:08:55;13.65;;;5.90;;
16967;SDS011;64862;54.398;10.126;2023-07-30T07:18:58;11.48;;;5.20;;
16967;SDS011;64862;54.398;10.126;2023-07-30T07:29:01;13.73;;;5.25;;
16967;SDS011;64862;54.398;10.126;2023-07-30T07:39:03;10.50;;;4.25;;
16967;SDS011;64862;54.398;10.126;2023-07-30T07:49:08;11.98;;;5.03;;
16967;SDS011;64862;54.398;10.126;2023-07-30T07:59:10;11.30;;;4.45;;
16967;SDS011;64862;54.398;10.126;2023-07-30T08:09:13;13.50;;;4.60;;
16967;SDS011;64862;54.398;10.126;2023-07-30T08:19:15;10.63;;;4.28;;
16967;SDS011;64862;54.398;10.126;2023-07-30T08:29:19;9.65;;;3.90;;
16967;SDS011;64862;54.398;10.126;2023-07-30T08:39:21;13.95;;;4.03;;
16967;SDS011;64862;54.398;10.126;2023-07-30T08:49:25;12.23;;;4.20;;
16967;SDS011;64862;54.398;10.126;2023-07-30T08:59:36;12.73;;;3.88;;
16967;SDS011;64862;54.398;10.126;2023-07-30T09:09:43;10.65;;;3.05;;
16967;SDS011;64862;54.398;10.126;2023-07-30T09:19:47;12.10;;;3.33;;
16967;SDS011;64862;54.398;10.126;2023-07-30T09:29:53;11.80;;;3.30;;
16967;SDS011;64862;54.398;10.126;2023-07-30T09:39:57;11.65;;;2.83;;
16967;SDS011;64862;54.398;10.126;2023-07-30T09:50:01;12.50;;;2.75;;
16967;SDS011;64862;54.398;10.126;2023-07-30T10:00:04;9.80;;;2.65;;
16967;SDS011;64862;54.398;10.126;2023-07-30T10:10:10;8.18;;;2.50;;
16967;SDS011;64862;54.398;10.126;2023-07-30T10:20:20;7.95;;;2.67;;
16967;SDS011;64862;54.398;10.126;2023-07-30T10:30:29;10.88;;;2.70;;
16967;SDS011;64862;54.398;10.126;2023-07-30T10:40:32;11.80;;;2.88;;
16967;SDS011;64862;54.398;10.126;2023-07-30T10:50:38;11.48;;;3.92;;
16967;SDS011;64862;54.398;10.126;2023-07-30T11:00:41;12.63;;;3.10;;
16967;SDS011;64862;54.398;10.126;2023-07-30T11:10:45;12.07;;;3.15;;
16967;SDS011;64862;54.398;10.126;2023-07-30T11:20:48;14.07;;;3.47;;
16967;SDS011;64862;54.398;10.126;2023-07-30T11:30:55;10.80;;;3.10;;
16967;SDS011;64862;54.398;10.126;2023-07-30T11:40:59;16.60;;;2.70;;
16967;SDS011;64862;54.398;10.126;2023-07-30T11:51:04;11.48;;;2.30;;
16967;SDS011;64862;54.398;10.126;2023-07-30T12:01:07;10.85;;;2.20;;
16967;SDS011;64862;54.398;10.126;2023-07-30T12:11:10;10.00;;;1.50;;
16967;SDS011;64862;54.398;10.126;2023-07-30T12:21:12;6.05;;;1.50;;
16967;SDS011;64862;54.398;10.126;2023-07-30T12:31:16;11.00;;;1.83;;
16967;SDS011;64862;54.398;10.126;2023-07-30T12:41:18;7.03;;;1.60;;
16967;SDS011;64862;54.398;10.126;2023-07-30T12:51:27;11.73;;;1.65;;
16967;SDS011;64862;54.398;10.126;2023-07-30T13:01:29;10.07;;;1.80;;
16967;SDS011;64862;54.398;10.126;2023-07-30T13:11:33;9.50;;;2.13;;
16967;SDS011;64862;54.398;10.126;2023-07-30T13:21:37;11.45;;;2.58;;
16967;SDS011;64862;54.398;10.126;2023-07-30T13:31:41;11.18;;;2.20;;
16967;SDS011;64862;54.398;10.126;2023-07-30T13:41:43;10.02;;;1.55;;
16967;SDS011;64862;54.398;10.126;2023-07-30T13:51:47;8.25;;;2.30;;
16967;SDS011;64862;54.398;10.126;2023-07-30T14:01:49;8.52;;;2.08;;
16967;SDS011;64862;54.398;10.126;2023-07-30T14:11:52;10.50;;;2.30;;
16967;SDS011;64862;54.398;10.126;2023-07-30T14:21:55;8.75;;;2.25;;
16967;SDS011;64862;54.398;10.126;2023-07-30T14:31:58;8.15;;;2.22;;
16967;SDS011;64862;54.398;10.126;2023-07-30T14:42:00;8.27;;;2.22;;
16967;SDS011;64862;54.398;10.126;2023-07-30T14:52:05;10.10;;;2.33;;
16967;SDS011;64862;54.398;10.126;2023-07-30T15:02:07;12.85;;;2.15;;
16967;SDS011;64862;54.398;10.126;2023-07-30T15:12:11;10.35;;;2.17;;
16967;SDS011;64862;54.398;10.126;2023-07-30T15:22:13;10.20;;;1.90;;
16967;SDS011;64862;54.398;10.126;2023-07-30T15:32:17;10.40;;;2.10;;
16967;SDS011;64862;54.398;10.126;2023-07-30T15:42:19;14.38;;;2.22;;
16967;SDS011;64862;54.398;10.126;2023-07-30T15:52:23;10.50;;;2.25;;
16967;SDS011;64862;54.398;10.126;2023-07-30T16:02:25;8.80;;;2.15;;
16967;SDS011;64862;54.398;10.126;2023-07-30T16:12:31;16.27;;;2.45;;
16967;SDS011;64862;54.398;10.126;2023-07-30T16:22:34;9.97;;;1.90;;
16967;SDS011;64862;54.398;10.126;2023-07-30T16:32:39;13.15;;;2.38;;
16967;SDS011;64862;54.398;10.126;2023-07-30T16:42:41;13.05;;;2.80;;
16967;SDS011;64862;54.398;10.126;2023-07-30T16:52:45;11.35;;;2.50;;
16967;SDS011;64862;54.398;10.126;2023-07-30T17:02:47;13.77;;;2.53;;
16967;SDS011;64862;54.398;10.126;2023-07-30T17:12:51;14.18;;;2.72;;
16967;SDS011;64862;54.398;10.126;2023-07-30T17:22:53;13.48;;;2.70;;
16967;SDS011;64862;54.398;10.126;2023-07-30T17:32:57;20.42;;;2.38;;
16967;SDS011;64862;54.398;10.126;2023-07-30T17:42:59;11.77;;;2.58;;
16967;SDS011;64862;54.398;10.126;2023-07-30T17:53:02;15.88;;;2.65;;
16967;SDS011;64862;54.398;10.126;2023-07-30T18:03:06;12.02;;;2.15;;
16967;SDS011;64862;54.398;10.126;2023-07-30T18:13:10;16.38;;;2.47;;
16967;SDS011;64862;54.398;10.126;2023-07-30T18:23:13;13.68;;;2.38;;
16967;SDS011;64862;54.398;10.126;2023-07-30T18:33:16;17.55;;;3.13;;
16967;SDS011;64862;54.398;10.126;2023-07-30T18:43:18;10.57;;;2.00;;
16967;SDS011;64862;54.398;10.126;2023-07-30T18:53:22;8.98;;;1.80;;
16967;SDS011;64862;54.398;10.126;2023-07-30T19:03:24;18.15;;;2.20;;
16967;SDS011;64862;54.398;10.126;2023-07-30T19:13:28;12.50;;;2.20;;
16967;SDS011;64862;54.398;10.126;2023-07-30T19:23:36;12.57;;;1.90;;
16967;SDS011;64862;54.398;10.126;2023-07-30T19:33:47;14.98;;;2.20;;
16967;SDS011;64862;54.398;10.126;2023-07-30T19:43:49;10.85;;;1.90;;
16967;SDS011;64862;54.398;10.126;2023-07-30T19:53:53;13.27;;;1.80;;
16967;SDS011;64862;54.398;10.126;2023-07-30T20:03:55;12.85;;;1.90;;
16967;SDS011;64862;54.398;10.126;2023-07-30T20:14:05;15.30;;;1.90;;
16967;SDS011;64862;54.398;10.126;2023-07-30T20:24:47;8.93;;;1.33;;
16967;SDS011;64862;54.398;10.126;2023-07-30T20:34:55;13.77;;;1.95;;
16967;SDS011;64862;54.398;10.126;2023-07-30T20:45:03;6.20;;;1.20;;
16967;SDS011;64862;54.398;10.126;2023-07-30T20:55:09;8.68;;;1.58;;
16967;SDS011;64862;54.398;10.126;2023-07-30T21:05:12;11.75;;;2.08;;
16967;SDS011;64862;54.398;10.126;2023-07-30T21:15:16;8.32;;;1.52;;
16967;SDS011;64862;54.398;10.126;2023-07-30T21:25:18;16.63;;;2.20;;
16967;SDS011;64862;54.398;10.126;2023-07-30T21:35:22;13.27;;;2.03;;
16967;SDS011;64862;54.398;10.126;2023-07-30T21:45:24;10.88;;;2.10;;
16967;SDS011;64862;54.398;10.126;2023-07-30T21:55:28;8.65;;;1.90;;
16967;SDS011;64862;54.398;10.126;2023-07-30T22:05:30;6.40;;;1.58;;
16967;SDS011;64862;54.398;10.126;2023-07-30T22:15:34;7.35;;;1.35;;
16967;SDS011;64862;54.398;10.126;2023-07-30T22:25:36;4.75;;;1.13;;
16967;SDS011;64862;54.398;10.126;2023-07-30T22:35:40;7.40;;;1.25;;
16967;SDS011;64862;54.398;10.126;2023-07-30T22:45:42;4.25;;;0.88;;
16967;SDS011;64862;54.398;10.126;2023-07-30T22:55:45;6.32;;;1.20;;
16967;SDS011;64862;54.398;10.126;2023-07-30T23:05:47;4.47;;;1.10;;
16967;SDS011;64862;54.398;10.126;2023-07-30T23:15:51;4.75;;;1.20;;
16967;SDS011;64862;54.398;10.126;2023-07-30T23:25:53;4.75;;;1.10;;
16967;SDS011;64862;54.398;10.126;2023-07-30T23:35:57;11.70;;;1.40;;
16967;SDS011;64862;54.398;10.126;2023-07-30T23:45:59;6.18;;;1.17;;
16967;SDS011;64862;54.398;10.126;2023-07-30T23:56:03;7.63;;;1.50;;
